Time;durP1;ratioP1;P1;durP2;ratioP2;P2;SDS_P1;SDS_P2;PMS_P1;PMS_P2;Temp;Humidity;BMP_temperature;BMP_pressure;BME280_temperature;BME280_humidity;BME280_pressure;Samples;Min_cycle;Max_cycle;Signal;HPM_P1;HPM_P2
2022/04/14 00:01:26;;;;;;;311.85;285.33;;;;;;;18.60;35.50;93639.34;5042288;28;20048;-76
2022/04/14 00:03:51;;;;;;;317.52;290.20;;;;;;;18.59;35.59;93643.25;5037049;28;20042;-76
2022/04/14 00:06:17;;;;;;;325.75;298.15;;;;;;;18.59;35.89;93637.09;5020378;28;20107;-76
2022/04/14 00:08:43;;;;;;;317.38;290.58;;;;;;;18.59;35.65;93645.94;5032789;28;20041;-76
2022/04/14 00:11:08;;;;;;;313.73;286.67;;;;;;;18.60;35.56;93650.19;5031423;28;20045;-75
2022/04/14 00:13:34;;;;;;;321.65;293.90;;;;;;;18.61;35.51;93657.09;5030552;28;20463;-75
2022/04/14 00:15:59;;;;;;;318.00;290.60;;;;;;;18.60;35.76;93650.19;5031286;28;20413;-76
2022/04/14 00:18:25;;;;;;;309.77;283.35;;;;;;;18.60;35.49;93657.53;5025870;28;20042;-76
2022/04/14 00:20:51;;;;;;;309.95;283.63;;;;;;;18.60;35.58;93647.47;5027730;28;20438;-76
2022/04/14 00:23:16;;;;;;;328.50;300.58;;;;;;;18.59;35.57;93659.50;5031938;28;20044;-76
2022/04/14 00:25:42;;;;;;;328.13;300.52;;;;;;;18.60;35.59;93661.03;5028985;28;20037;-76
2022/04/14 00:28:07;;;;;;;327.30;299.73;;;;;;;18.59;35.47;93659.50;5011983;28;20084;-76
2022/04/14 00:30:33;;;;;;;319.33;292.65;;;;;;;18.59;35.70;93664.91;5030746;28;20037;-76
2022/04/14 00:32:59;;;;;;;310.23;283.90;;;;;;;18.58;35.73;93652.59;5034905;28;20073;-76
2022/04/14 00:35:24;;;;;;;315.60;289.08;;;;;;;18.57;35.48;93655.75;5031615;28;21653;-76
2022/04/14 00:37:50;;;;;;;313.42;286.63;;;;;;;18.59;35.17;93666.88;5040423;28;20072;-76
2022/04/14 00:40:15;;;;;;;315.70;288.77;;;;;;;18.60;35.44;93657.53;5035097;28;20059;-76
2022/04/14 00:42:41;;;;;;;324.77;296.35;;;;;;;18.60;35.38;93666.44;5016510;28;20049;-76
2022/04/14 00:45:09;;;;;;;331.13;303.05;;;;;;;18.60;35.65;93668.38;5033364;28;20033;-76
2022/04/14 00:47:35;;;;;;;320.73;293.55;;;;;;;18.60;35.66;93662.94;5026793;28;20093;-76
2022/04/14 00:50:03;;;;;;;325.52;298.67;;;;;;;18.60;35.58;93661.03;5030617;28;20042;-76
2022/04/14 00:52:28;;;;;;;319.95;293.08;;;;;;;18.60;35.45;93671.06;5039298;28;20175;-76
2022/04/14 00:54:54;;;;;;;315.63;288.50;;;;;;;18.60;35.50;93671.84;5037699;28;20527;-76
2022/04/14 00:57:19;;;;;;;310.10;283.77;;;;;;;18.59;35.70;93667.63;5035107;28;20041;-76
2022/04/14 00:59:45;;;;;;;309.40;282.75;;;;;;;18.59;35.45;93669.59;5036775;28;20052;-76
2022/04/14 01:02:11;;;;;;;312.75;285.77;;;;;;;18.59;35.56;93667.63;5041249;28;20037;-76
2022/04/14 01:04:37;;;;;;;312.95;286.73;;;;;;;18.58;35.35;93670.78;5038128;28;20044;-76
2022/04/14 01:07:06;;;;;;;307.33;280.80;;;;;;;18.59;35.21;93678.44;5010429;28;20049;-76
2022/04/14 01:09:33;;;;;;;310.75;284.38;;;;;;;18.60;35.60;93681.91;5038938;28;20413;-76
2022/04/14 01:12:00;;;;;;;311.17;284.92;;;;;;;18.58;35.26;93674.25;5044376;28;20037;-76
2022/04/14 01:14:27;;;;;;;314.45;287.88;;;;;;;18.58;35.39;93678.91;5029451;28;20143;-76
2022/04/14 01:17:00;;;;;;;314.55;288.13;;;;;;;18.59;35.35;93678.44;5036280;28;20030;-76
2022/04/14 01:19:27;;;;;;;326.40;298.35;;;;;;;18.58;35.31;93682.38;5040514;28;20550;-75
2022/04/14 01:22:11;;;;;;;324.02;297.23;;;;;;;18.58;35.33;93687.78;5040412;28;20115;-75
2022/04/14 01:24:38;;;;;;;314.17;287.58;;;;;;;18.60;35.22;93688.09;5018486;28;20044;-75
2022/04/14 01:27:04;;;;;;;310.38;283.80;;;;;;;18.59;35.40;93688.53;5034149;28;20060;-76
2022/04/14 01:29:30;;;;;;;308.92;282.80;;;;;;;18.61;35.33;93692.31;5038532;28;20033;-76
2022/04/14 01:31:57;;;;;;;319.88;293.00;;;;;;;18.60;35.53;93690.03;5044227;28;20390;-76
2022/04/14 01:34:23;;;;;;;313.85;286.98;;;;;;;18.60;35.34;93690.03;5042841;28;20037;-76
2022/04/14 01:36:48;;;;;;;315.42;288.25;;;;;;;18.57;35.34;93691.72;5041806;28;20048;-76
2022/04/14 01:39:14;;;;;;;320.77;292.85;;;;;;;18.59;35.22;93697.41;5020369;28;20044;-76
2022/04/14 01:41:41;;;;;;;316.73;289.73;;;;;;;18.58;35.28;93695.16;5040644;28;20142;-76
2022/04/14 01:44:08;;;;;;;314.45;287.05;;;;;;;18.58;35.33;93698.63;5020951;28;20149;-75
2022/04/14 01:46:34;;;;;;;329.98;301.52;;;;;;;18.57;35.42;93699.09;5033989;28;20034;-76
2022/04/14 01:49:00;;;;;;;320.17;292.98;;;;;;;18.56;35.46;93698.34;5017316;28;20103;-76
2022/04/14 01:51:27;;;;;;;322.70;294.92;;;;;;;18.56;35.21;93695.63;5014654;28;20493;-75
2022/04/14 01:53:52;;;;;;;328.98;300.50;;;;;;;18.57;35.46;93696.38;5022398;28;20140;-76
2022/04/14 01:56:18;;;;;;;310.65;283.60;;;;;;;18.56;35.39;93695.63;5029412;28;20136;-76
2022/04/14 01:58:45;;;;;;;311.10;284.70;;;;;;;18.56;35.60;93689.47;5044087;28;20041;-74
2022/04/14 02:01:11;;;;;;;321.60;294.45;;;;;;;18.55;34.96;93694.13;5043586;28;20558;-76
2022/04/14 02:03:36;;;;;;;327.98;299.75;;;;;;;18.56;35.30;93703.75;5035223;28;20033;-76
2022/04/14 02:06:02;;;;;;;329.45;302.35;;;;;;;18.56;35.43;93694.88;5039850;28;20455;-76
2022/04/14 02:08:28;;;;;;;323.88;295.88;;;;;;;18.55;35.40;93707.69;5033912;28;20041;-75
2022/04/14 02:10:54;;;;;;;336.75;308.35;;;;;;;18.56;35.45;93697.59;5018019;28;20106;-76
2022/04/14 02:13:20;;;;;;;343.08;312.92;;;;;;;18.58;35.23;93706.00;5041710;28;20052;-75
2022/04/14 02:15:46;;;;;;;338.00;308.92;;;;;;;18.56;35.25;93695.63;5038425;28;20045;-76
2022/04/14 02:18:11;;;;;;;317.73;290.52;;;;;;;18.55;35.17;93701.50;5028133;28;20037;-75
2022/04/14 02:20:37;;;;;;;318.13;291.35;;;;;;;18.58;35.28;93701.34;5005038;28;20127;-76
2022/04/14 02:23:03;;;;;;;303.35;276.92;;;;;;;18.56;35.25;93697.59;5003361;28;20057;-76
2022/04/14 02:25:29;;;;;;;330.17;301.77;;;;;;;18.56;35.17;93697.59;5037837;28;20135;-76
2022/04/14 02:27:54;;;;;;;316.35;288.83;;;;;;;18.56;35.38;93700.31;5027399;28;20042;-76
2022/04/14 02:30:21;;;;;;;322.90;295.52;;;;;;;18.55;35.33;93696.84;5037078;28;20128;-76
2022/04/14 02:32:46;;;;;;;315.23;288.60;;;;;;;18.55;35.24;93707.69;5035585;28;20037;-76
2022/04/14 02:35:12;;;;;;;307.25;281.08;;;;;;;18.56;35.20;93701.03;5035533;28;20091;-76
2022/04/14 02:37:38;;;;;;;317.15;289.95;;;;;;;18.57;35.01;93701.78;5043755;28;20489;-76
2022/04/14 02:40:04;;;;;;;322.63;294.90;;;;;;;18.56;35.27;93703.75;5038514;28;20489;-76
2022/04/14 02:42:30;;;;;;;311.63;284.85;;;;;;;18.54;35.07;93700.00;5042823;28;20128;-76
2022/04/14 02:44:56;;;;;;;316.88;289.98;;;;;;;18.55;35.33;93704.22;5038014;28;20069;-76
2022/04/14 02:47:21;;;;;;;317.13;290.40;;;;;;;18.54;35.45;93695.34;5040033;28;20091;-76
2022/04/14 02:49:47;;;;;;;320.15;292.23;;;;;;;18.54;35.36;93705.44;4999331;28;20095;-75
2022/04/14 02:52:14;;;;;;;318.83;291.23;;;;;;;18.54;35.13;93698.06;5033069;28;20411;-76
2022/04/14 02:54:39;;;;;;;319.27;291.48;;;;;;;18.53;35.20;93704.69;5034459;28;20076;-76
2022/04/14 02:57:06;;;;;;;332.67;302.95;;;;;;;18.51;35.17;93709.06;5018975;28;20072;-75
2022/04/14 02:59:31;;;;;;;319.63;292.60;;;;;;;18.50;35.43;93707.56;5032738;28;20053;-75
2022/04/14 03:02:00;;;;;;;315.33;288.48;;;;;;;18.51;35.47;93709.06;5032087;28;20044;-75
2022/04/14 03:04:29;;;;;;;311.00;284.45;;;;;;;18.48;35.26;93699.91;5035083;28;21142;-75
2022/04/14 03:06:55;;;;;;;318.88;291.63;;;;;;;18.51;35.34;93711.78;5015815;28;20073;-75
2022/04/14 03:09:20;;;;;;;309.52;282.73;;;;;;;18.48;35.21;93710.00;5015279;28;20072;-76
2022/04/14 03:11:46;;;;;;;309.65;282.98;;;;;;;18.47;35.34;93717.38;5036901;28;20040;-76
2022/04/14 03:14:11;;;;;;;320.02;292.08;;;;;;;18.43;35.29;93706.72;5039433;28;20045;-76
2022/04/14 03:16:37;;;;;;;318.27;289.80;;;;;;;18.46;35.60;93709.72;5019347;28;20041;-75
2022/04/14 03:19:02;;;;;;;307.25;280.13;;;;;;;18.46;35.19;93710.47;5034271;28;20040;-76
2022/04/14 03:21:29;;;;;;;317.05;290.08;;;;;;;18.46;34.96;93710.47;5030919;28;20040;-76
2022/04/14 03:23:54;;;;;;;309.23;282.33;;;;;;;18.46;35.31;93704.28;5020824;28;20041;-75
2022/04/14 03:26:19;;;;;;;303.05;276.00;;;;;;;18.44;35.02;93708.22;5035280;28;20839;-76
2022/04/14 03:28:45;;;;;;;310.63;283.63;;;;;;;18.44;35.34;93707.47;5041753;28;20458;-76
2022/04/14 03:31:11;;;;;;;321.80;293.98;;;;;;;18.43;35.27;93704.00;5040023;28;20037;-76
2022/04/14 03:33:37;;;;;;;321.92;293.80;;;;;;;18.44;35.20;93713.63;5025936;28;20037;-77
2022/04/14 03:36:03;;;;;;;305.63;279.25;;;;;;;18.42;35.01;93705.22;5034827;28;20044;-76
2022/04/14 03:38:29;;;;;;;305.83;279.42;;;;;;;18.42;35.29;93712.59;5030784;28;20041;-75
2022/04/14 03:40:54;;;;;;;314.88;287.45;;;;;;;18.43;35.44;93708.69;5023631;28;20045;-76
2022/04/14 03:43:20;;;;;;;311.42;284.65;;;;;;;18.42;35.07;93716.06;5032993;28;20059;-76
2022/04/14 03:45:46;;;;;;;316.45;288.80;;;;;;;18.44;35.31;93710.16;5016508;28;20046;-76
2022/04/14 03:48:11;;;;;;;304.95;278.50;;;;;;;18.45;34.92;93714.38;5032356;28;20060;-75
2022/04/14 03:50:37;;;;;;;310.88;283.90;;;;;;;18.43;35.18;93717.53;5021145;28;20068;-75
2022/04/14 03:53:02;;;;;;;314.70;287.85;;;;;;;18.44;35.27;93729.13;5041015;28;20059;-76
2022/04/14 03:55:28;;;;;;;313.83;286.77;;;;;;;18.46;35.25;93725.97;5035798;28;20114;-76
2022/04/14 03:57:54;;;;;;;311.98;285.45;;;;;;;18.45;35.11;93730.63;5017562;28;20041;-76
2022/04/14 04:00:20;;;;;;;315.38;287.85;;;;;;;18.48;35.30;93737.81;5017352;28;20065;-76
2022/04/14 04:02:45;;;;;;;308.60;281.95;;;;;;;18.50;34.97;93740.06;5026889;28;21244;-76
2022/04/14 04:05:11;;;;;;;307.15;280.40;;;;;;;18.52;35.32;93734.94;5011744;28;20152;-76
2022/04/14 04:07:37;;;;;;;318.05;291.17;;;;;;;18.55;35.13;93736.72;5034184;28;20039;-76
2022/04/14 04:10:04;;;;;;;314.73;287.83;;;;;;;18.58;35.18;93733.09;5044298;28;20037;-75
2022/04/14 04:12:30;;;;;;;338.83;309.95;;;;;;;18.59;35.48;93746.16;5014140;28;20515;-75
2022/04/14 04:14:55;;;;;;;321.17;294.30;;;;;;;18.63;35.44;93735.94;5040243;28;20052;-76
2022/04/14 04:17:21;;;;;;;320.27;293.50;;;;;;;18.66;35.28;93745.84;5033562;28;20041;-75
2022/04/14 04:19:47;;;;;;;305.42;279.30;;;;;;;18.72;35.38;93735.09;5023832;28;20041;-74
2022/04/14 04:22:13;;;;;;;318.13;290.38;;;;;;;18.72;35.34;93741.28;5001441;28;20101;-75
2022/04/14 04:24:39;;;;;;;331.10;302.95;;;;;;;18.73;35.25;93744.72;5033650;28;20041;-72
2022/04/14 04:27:06;;;;;;;341.65;313.35;;;;;;;18.75;35.50;93745.00;5021079;28;20068;-73
2022/04/14 04:29:32;;;;;;;331.35;303.42;;;;;;;18.74;35.38;93744.25;5033093;28;20037;-75
2022/04/14 04:31:58;;;;;;;334.75;307.42;;;;;;;18.77;35.49;93753.44;5028517;28;20757;-73
2022/04/14 04:34:24;;;;;;;328.75;301.52;;;;;;;18.78;35.43;93749.50;5010520;28;20064;-77
2022/04/14 04:36:50;;;;;;;334.35;306.85;;;;;;;18.76;35.20;93751.94;5039543;28;20041;-75
2022/04/14 04:39:16;;;;;;;340.45;312.42;;;;;;;18.77;35.39;93747.25;5043868;28;20040;-75
2022/04/14 04:41:42;;;;;;;341.10;313.42;;;;;;;18.78;35.48;93754.91;5023464;28;20107;-75
2022/04/14 04:44:07;;;;;;;323.50;296.75;;;;;;;18.76;35.32;93751.94;5034293;28;20042;-76
2022/04/14 04:46:33;;;;;;;355.63;325.20;;;;;;;18.74;35.50;93760.53;5020550;28;20124;-76
2022/04/14 04:48:59;;;;;;;340.13;312.25;;;;;;;18.72;35.31;93760.22;5032183;28;20241;-75
2022/04/14 04:51:27;;;;;;;330.88;304.10;;;;;;;18.73;35.42;93771.81;5043896;28;20072;-75
2022/04/14 04:53:53;;;;;;;345.95;317.00;;;;;;;18.71;35.20;93760.69;5020760;28;20419;-75
2022/04/14 04:56:19;;;;;;;336.35;308.55;;;;;;;18.72;35.22;93770.31;5040074;28;20065;-75
2022/04/14 04:58:46;;;;;;;327.98;300.85;;;;;;;18.71;35.17;93772.28;5046030;28;20044;-76
2022/04/14 05:01:12;;;;;;;345.77;317.33;;;;;;;18.75;35.09;93767.44;5042824;28;20082;-76
2022/04/14 05:03:38;;;;;;;344.35;315.88;;;;;;;18.73;35.15;93767.16;5014415;28;20045;-75
2022/04/14 05:06:04;;;;;;;337.38;309.92;;;;;;;18.76;35.05;93776.31;5022503;28;20125;-76
2022/04/14 05:08:29;;;;;;;339.50;311.88;;;;;;;18.73;34.93;93775.28;5031281;28;20468;-76
2022/04/14 05:10:55;;;;;;;336.55;308.60;;;;;;;18.74;35.17;93782.19;5019244;28;20106;-76
2022/04/14 05:13:20;;;;;;;338.73;310.77;;;;;;;18.72;35.10;93781.16;5035925;28;20394;-75
2022/04/14 05:15:46;;;;;;;326.10;299.02;;;;;;;18.73;35.08;93780.69;5042294;28;20044;-75
2022/04/14 05:18:12;;;;;;;330.95;303.73;;;;;;;18.72;34.80;93790.03;5034997;28;20064;-76
2022/04/14 05:20:38;;;;;;;339.15;310.45;;;;;;;18.72;34.94;93787.31;5034344;28;20045;-76
2022/04/14 05:23:08;;;;;;;338.98;311.20;;;;;;;18.76;34.80;93784.44;5033512;28;20372;-74
2022/04/14 05:25:33;;;;;;;341.45;313.15;;;;;;;18.77;34.83;93785.19;5015980;28;20043;-74
2022/04/14 05:27:59;;;;;;;322.70;295.75;;;;;;;18.73;34.77;93782.66;5039475;28;20120;-73
2022/04/14 05:30:25;;;;;;;339.88;311.85;;;;;;;18.78;34.80;93795.56;5020536;28;20044;-74
2022/04/14 05:33:00;;;;;;;336.73;309.15;;;;;;;18.82;34.74;93787.25;5026291;28;20456;-75
2022/04/14 05:35:25;;;;;;;318.33;291.30;;;;;;;18.80;34.66;93801.25;5048764;28;20370;-74
2022/04/14 05:37:52;;;;;;;335.88;307.88;;;;;;;18.80;34.68;93795.09;5034200;28;20044;-74
2022/04/14 05:40:18;;;;;;;342.05;314.23;;;;;;;18.82;34.80;93790.72;5040332;28;20059;-74
2022/04/14 05:42:46;;;;;;;321.35;294.42;;;;;;;18.85;34.65;93794.47;5047015;28;20041;-76
2022/04/14 05:45:15;;;;;;;337.65;309.63;;;;;;;18.82;34.79;93789.97;5026450;28;20486;-74
2022/04/14 05:47:44;;;;;;;333.45;306.17;;;;;;;18.79;34.81;93786.22;5041482;28;20631;-76
2022/04/14 05:50:09;;;;;;;324.05;297.25;;;;;;;18.79;34.94;93794.34;5045197;28;20136;-73
2022/04/14 05:52:36;;;;;;;321.95;295.25;;;;;;;18.79;34.88;93793.59;5007175;28;20052;-73
2022/04/14 05:55:02;;;;;;;329.55;302.55;;;;;;;18.80;34.91;93792.38;5028742;28;20061;-73
2022/04/14 05:57:30;;;;;;;323.55;296.45;;;;;;;18.83;34.86;93791.47;5012968;28;20473;-72
2022/04/14 05:59:58;;;;;;;327.13;299.83;;;;;;;18.82;34.85;93803.50;5042051;28;20115;-72
2022/04/14 06:02:24;;;;;;;326.88;299.95;;;;;;;18.80;34.73;93800.50;5039594;28;20065;-72
2022/04/14 06:04:49;;;;;;;329.55;302.52;;;;;;;18.83;34.80;93800.34;5027327;28;20497;-71
2022/04/14 06:07:15;;;;;;;325.13;298.05;;;;;;;18.82;34.73;93806.97;5046657;28;20044;-71
2022/04/14 06:09:40;;;;;;;330.80;303.92;;;;;;;18.81;34.93;93799.31;5051211;28;20040;-72
2022/04/14 06:12:07;;;;;;;328.08;301.17;;;;;;;18.83;34.75;93797.63;5023072;28;20080;-72
2022/04/14 06:14:36;;;;;;;328.42;301.17;;;;;;;18.85;34.89;93805.28;5028148;28;20052;-72
2022/04/14 06:17:02;;;;;;;327.05;300.35;;;;;;;18.87;34.82;93800.88;5009342;28;20049;-76
2022/04/14 06:19:28;;;;;;;325.48;298.02;;;;;;;18.84;34.77;93799.13;5044854;28;20435;-73
2022/04/14 06:21:54;;;;;;;336.95;309.15;;;;;;;18.84;34.87;93804.53;5040070;28;20081;-73
2022/04/14 06:24:19;;;;;;;338.85;311.75;;;;;;;18.86;34.81;93814.88;5040249;28;20032;-73
2022/04/14 06:26:45;;;;;;;320.48;294.23;;;;;;;18.88;34.68;93809.75;5046311;28;20120;-73
2022/04/14 06:29:11;;;;;;;325.73;298.67;;;;;;;18.88;34.65;93821.34;5021763;28;20450;-71
2022/04/14 06:31:37;;;;;;;324.20;297.08;;;;;;;18.88;34.57;93813.22;5041712;28;20087;-71
2022/04/14 06:34:05;;;;;;;326.35;299.95;;;;;;;18.90;34.49;93802.66;5024059;28;20041;-71
2022/04/14 06:36:31;;;;;;;336.02;307.42;;;;;;;18.89;34.74;93809.28;5030935;28;20045;-72
2022/04/14 06:38:57;;;;;;;337.10;309.63;;;;;;;18.90;34.66;93816.22;5039435;28;20591;-74
2022/04/14 06:41:22;;;;;;;332.77;305.63;;;;;;;18.88;34.75;93807.78;5032580;28;20051;-72
2022/04/14 06:43:49;;;;;;;329.55;301.70;;;;;;;18.90;34.60;93810.78;5012651;28;20041;-72
2022/04/14 06:46:18;;;;;;;333.10;305.70;;;;;;;18.92;34.53;93813.78;5000023;28;20053;-72
2022/04/14 06:48:44;;;;;;;331.75;304.98;;;;;;;18.92;34.48;93815.75;5015431;28;20052;-72
2022/04/14 06:51:11;;;;;;;346.00;318.20;;;;;;;18.94;34.74;93824.16;5032745;28;20112;-72
2022/04/14 06:53:38;;;;;;;335.73;308.27;;;;;;;18.94;34.61;93824.16;5037284;28;20409;-72
2022/04/14 06:56:07;;;;;;;341.05;312.50;;;;;;;18.96;34.54;93822.47;5015172;28;20076;-72
2022/04/14 06:58:32;;;;;;;330.88;303.67;;;;;;;18.97;34.63;93820.53;5036322;28;20502;-72
2022/04/14 07:00:58;;;;;;;338.50;311.13;;;;;;;18.96;34.65;93822.47;5036540;28;20063;-72
2022/04/14 07:03:26;;;;;;;330.52;303.08;;;;;;;18.96;34.63;93821.72;5019774;28;20582;-72
2022/04/14 07:05:54;;;;;;;332.48;304.33;;;;;;;18.96;34.47;93821.72;5041927;28;20081;-73
2022/04/14 07:08:21;;;;;;;338.13;310.67;;;;;;;18.97;34.65;93823.22;5016910;28;20147;-72
2022/04/14 07:10:47;;;;;;;343.75;314.75;;;;;;;18.96;34.57;93819.78;5035503;28;20043;-75
2022/04/14 07:13:12;;;;;;;330.45;302.48;;;;;;;18.97;34.64;93820.53;5037329;28;20633;-72
2022/04/14 07:15:38;;;;;;;332.42;305.42;;;;;;;18.97;34.68;93828.66;5038434;28;20365;-72
2022/04/14 07:18:03;;;;;;;343.50;315.50;;;;;;;18.97;34.59;93825.94;5029395;28;20233;-71
2022/04/14 07:20:30;;;;;;;343.27;314.10;;;;;;;18.98;34.64;93830.16;5036084;28;20549;-70
2022/04/14 07:22:58;;;;;;;334.55;307.63;;;;;;;19.00;34.66;93833.16;5036122;28;20653;-70
2022/04/14 07:25:24;;;;;;;330.67;303.85;;;;;;;18.99;34.44;93832.41;5043428;28;20081;-70
2022/04/14 07:27:50;;;;;;;331.08;303.98;;;;;;;19.04;34.63;93831.00;5042922;28;20041;-70
2022/04/14 07:30:15;;;;;;;341.25;313.67;;;;;;;19.02;34.65;93836.16;5043354;28;20043;-70
2022/04/14 07:32:46;;;;;;;336.27;308.90;;;;;;;19.01;34.70;93838.09;5041955;28;20087;-70
2022/04/14 07:35:13;;;;;;;334.35;307.27;;;;;;;18.95;34.88;93836.50;5042717;28;20084;-71
2022/04/14 07:37:38;;;;;;;331.52;304.50;;;;;;;19.00;35.03;93835.84;5038684;28;20407;-70
2022/04/14 07:40:06;;;;;;;323.63;296.70;;;;;;;19.02;34.77;93836.16;5017559;28;20052;-70
2022/04/14 07:42:35;;;;;;;334.88;307.80;;;;;;;19.03;34.79;93841.09;5034051;28;20089;-69
2022/04/14 07:45:01;;;;;;;344.67;316.98;;;;;;;19.04;34.74;93844.56;5043324;28;20041;-71
2022/04/14 07:47:26;;;;;;;330.95;304.05;;;;;;;19.04;34.77;93841.84;5018162;28;20053;-70
2022/04/14 07:49:52;;;;;;;329.95;303.13;;;;;;;19.06;34.88;93844.84;5036890;28;20460;-70
2022/04/14 07:52:18;;;;;;;338.85;311.55;;;;;;;19.05;34.71;93840.63;5045038;28;20170;-70
2022/04/14 07:54:44;;;;;;;342.40;313.58;;;;;;;19.05;34.66;93846.81;5017612;28;20120;-70
2022/04/14 07:57:10;;;;;;;346.55;318.27;;;;;;;19.05;34.74;93846.81;5042079;28;20049;-70
2022/04/14 07:59:36;;;;;;;335.00;307.85;;;;;;;19.03;34.90;93843.06;5025284;28;20408;-70
2022/04/14 08:02:01;;;;;;;341.23;313.67;;;;;;;19.00;35.02;93852.88;5042135;28;20037;-69
2022/04/14 08:04:27;;;;;;;319.00;292.23;;;;;;;18.97;34.97;93856.50;5017428;28;20356;-69
2022/04/14 08:06:53;;;;;;;329.73;302.75;;;;;;;18.95;35.26;93852.75;5039832;28;20040;-70
2022/04/14 08:09:20;;;;;;;330.45;303.30;;;;;;;18.96;35.17;93857.72;5017631;28;20409;-69
2022/04/14 08:11:46;;;;;;;335.38;307.20;;;;;;;19.01;35.30;93857.06;5017011;28;20812;-70
2022/04/14 08:14:11;;;;;;;344.58;316.65;;;;;;;18.99;34.99;93853.34;5043680;28;20033;-69
2022/04/14 08:16:37;;;;;;;331.92;303.77;;;;;;;18.95;35.34;93858.94;5033257;28;20033;-70
2022/04/14 08:19:03;;;;;;;338.73;311.35;;;;;;;18.95;35.08;93855.47;5038839;28;20113;-70
2022/04/14 08:21:28;;;;;;;330.95;303.88;;;;;;;18.96;35.13;93867.81;5014862;28;20416;-69
2022/04/14 08:23:53;;;;;;;324.92;297.58;;;;;;;18.94;35.30;93860.13;5031375;28;20037;-70
2022/04/14 08:26:19;;;;;;;319.70;293.13;;;;;;;18.95;35.26;93869.03;5025660;28;20069;-69
2022/04/14 08:28:46;;;;;;;332.38;305.08;;;;;;;18.98;35.08;93866.13;5023428;28;20049;-72
2022/04/14 08:31:12;;;;;;;347.67;319.30;;;;;;;18.96;35.04;93865.09;5030846;28;20037;-70
2022/04/14 08:33:39;;;;;;;346.23;317.13;;;;;;;18.95;35.24;93860.88;5040457;28;20041;-70
2022/04/14 08:36:11;;;;;;;486.95;455.50;;;;;;;18.92;35.26;93862.56;5026435;28;20048;-70
2022/04/14 08:38:37;;;;;;;399.35;370.48;;;;;;;18.89;35.15;93857.31;5024028;28;20201;-70
2022/04/14 08:41:07;;;;;;;336.10;308.60;;;;;;;18.92;35.18;93861.81;5024764;28;20132;-70
2022/04/14 08:43:35;;;;;;;323.40;296.75;;;;;;;18.90;35.08;93856.09;5023514;28;20163;-70
2022/04/14 08:46:03;;;;;;;343.23;315.05;;;;;;;18.90;35.32;93856.09;5032355;28;20063;-70
2022/04/14 08:48:29;;;;;;;318.13;291.65;;;;;;;18.89;35.41;93860.78;5032626;28;20087;-70
2022/04/14 08:50:56;;;;;;;326.73;299.80;;;;;;;18.89;35.40;93858.06;5042357;28;20037;-71
2022/04/14 08:53:26;;;;;;;316.60;289.80;;;;;;;18.90;35.38;93859.56;5009654;28;20041;-70
2022/04/14 08:55:52;;;;;;;;;;;;;;;18.91;35.42;93865.72;5043193;28;20402;-69
2022/04/14 08:58:19;;;;;;;315.75;289.17;;;;;;;18.89;35.51;93863.50;5028828;28;19939;-70
2022/04/14 09:00:45;;;;;;;320.30;292.83;;;;;;;18.83;35.69;93861.91;5044957;28;20049;-70
2022/04/14 09:03:18;;;;;;;336.25;308.67;;;;;;;18.83;35.59;93859.94;5045277;28;20458;-70
2022/04/14 09:05:43;;;;;;;331.35;304.23;;;;;;;18.81;35.60;93856.19;5047699;28;20053;-69
2022/04/14 09:08:09;;;;;;;324.52;297.67;;;;;;;18.82;35.74;93858.44;5029526;28;20466;-69
2022/04/14 09:10:39;;;;;;;333.48;305.65;;;;;;;18.84;35.84;93863.41;5036844;28;20048;-70
2022/04/14 09:13:05;;;;;;;331.57;304.57;;;;;;;18.84;35.93;93853.31;5040421;28;20041;-70
2022/04/14 09:15:30;;;;;;;324.55;297.25;;;;;;;18.85;35.92;93865.63;5025587;28;20326;-71
2022/04/14 09:17:59;;;;;;;332.50;305.30;;;;;;;18.85;35.81;93862.19;5026063;28;20037;-71
2022/04/14 09:20:34;;;;;;;327.70;300.70;;;;;;;18.83;35.83;93859.19;5035909;28;20057;-70
2022/04/14 09:23:21;;;;;;;316.83;290.02;;;;;;;18.84;36.11;93864.16;5041869;28;20049;-70
2022/04/14 09:26:06;;;;;;;339.08;311.02;;;;;;;18.81;36.27;93867.78;4992653;28;20057;-71
2022/04/14 09:28:36;;;;;;;335.13;307.33;;;;;;;18.80;36.34;93860.88;5020108;28;20034;-70
2022/04/14 09:31:04;;;;;;;324.02;297.02;;;;;;;18.79;36.40;93851.25;5044218;28;21778;-70
2022/04/14 09:33:32;;;;;;;331.42;304.05;;;;;;;18.78;36.25;93857.13;5044194;28;20036;-70
2022/04/14 09:36:20;;;;;;;346.52;318.55;;;;;;;18.75;36.43;93859.53;5044641;28;20493;-71
2022/04/14 09:38:58;;;;;;;334.73;307.10;;;;;;;18.74;36.55;93851.88;5027365;28;20042;-71
2022/04/14 09:41:31;;;;;;;333.70;305.88;;;;;;;18.74;36.41;93849.91;5041323;28;20048;-71
2022/04/14 09:43:58;;;;;;;369.33;339.27;;;;;;;18.75;36.45;93854.13;5036488;28;20064;-70
2022/04/14 09:46:25;;;;;;;327.05;299.60;;;;;;;18.74;35.97;93858.03;5043992;28;20481;-71
2022/04/14 09:49:11;;;;;;;353.42;324.80;;;;;;;18.74;36.65;93854.59;5034792;28;20049;-70
2022/04/14 09:51:42;;;;;;;337.30;309.00;;;;;;;18.72;36.55;93848.88;5035648;28;20106;-70
2022/04/14 09:54:15;;;;;;;326.77;299.45;;;;;;;18.69;36.71;93845.13;5044451;28;20120;-70
2022/04/14 09:56:49;;;;;;;331.13;302.65;;;;;;;18.66;36.98;93853.44;5041208;28;20065;-72
2022/04/14 09:59:17;;;;;;;319.65;293.13;;;;;;;18.64;36.96;93845.03;5034904;28;20041;-71
2022/04/14 10:01:46;;;;;;;329.65;302.23;;;;;;;18.62;37.26;93844.72;5038879;28;20042;-72
2022/04/14 10:04:34;;;;;;;319.90;293.02;;;;;;;18.63;36.84;93843.53;5039568;28;20045;-71
2022/04/14 10:07:09;;;;;;;320.30;293.60;;;;;;;18.67;37.01;93842.13;5025740;28;20041;-72
2022/04/14 10:09:38;;;;;;;322.23;294.92;;;;;;;18.72;36.77;93838.78;5036718;28;20041;-72
2022/04/14 10:12:19;;;;;;;323.50;296.70;;;;;;;18.76;36.84;93841.31;5027002;28;20040;-70
2022/04/14 10:14:58;;;;;;;321.65;294.45;;;;;;;18.74;36.83;93835.63;5043394;28;20064;-68
2022/04/14 10:17:25;;;;;;;338.38;310.17;;;;;;;18.70;36.99;93835.03;5026000;28;20057;-68
2022/04/14 10:19:51;;;;;;;325.90;298.88;;;;;;;18.72;36.94;93836.09;5033911;28;20045;-68
2022/04/14 10:22:18;;;;;;;327.42;300.35;;;;;;;18.69;36.89;93828.13;5029440;28;20094;-68
2022/04/14 10:24:44;;;;;;;312.45;286.45;;;;;;;18.74;36.70;93835.63;5031090;28;20033;-67
2022/04/14 10:27:11;;;;;;;314.98;288.40;;;;;;;18.80;36.69;93824.91;5039254;28;20056;-70
2022/04/14 10:29:38;;;;;;;317.02;290.25;;;;;;;18.80;36.93;93816.78;5041915;28;20048;-69
2022/04/14 10:32:05;;;;;;;324.08;296.98;;;;;;;18.77;36.85;93826.56;5025429;28;20045;-70
2022/04/14 10:34:33;;;;;;;320.35;293.42;;;;;;;18.78;36.97;93830.78;5044408;28;20048;-70
2022/04/14 10:37:01;;;;;;;340.10;313.00;;;;;;;18.80;37.10;93827.59;5044701;28;20526;-70
2022/04/14 10:39:29;;;;;;;334.55;306.55;;;;;;;18.83;37.22;93835.56;5039074;28;20070;-70
2022/04/14 10:41:56;;;;;;;336.95;309.10;;;;;;;18.85;37.02;93835.81;5031987;28;20099;-70
2022/04/14 10:44:22;;;;;;;338.33;310.42;;;;;;;18.82;37.00;93830.59;5026317;28;20460;-70
2022/04/14 10:46:52;;;;;;;335.00;307.73;;;;;;;18.80;37.24;93836.47;5045333;28;20256;-70
2022/04/14 10:49:32;;;;;;;329.55;302.45;;;;;;;18.77;37.18;93832.00;5039937;28;20040;-69
2022/04/14 10:52:24;;;;;;;336.23;308.60;;;;;;;18.85;37.16;93840.50;5020749;28;20036;-69
2022/04/14 10:55:00;;;;;;;318.38;292.08;;;;;;;18.88;36.89;93828.72;5033340;28;20499;-69
2022/04/14 10:57:44;;;;;;;320.48;294.45;;;;;;;18.86;37.25;93833.84;5043178;28;20045;-68
2022/04/14 11:00:18;;;;;;;330.30;302.77;;;;;;;18.84;37.25;93825.47;5043113;28;20048;-68
2022/04/14 11:03:11;;;;;;;322.83;296.17;;;;;;;18.86;37.01;93823.75;5039907;28;20037;-69